Time;durP1;ratioP1;P1;durP2;ratioP2;P2;SDS_P1;SDS_P2;PMS_P1;PMS_P2;Temp;Humidity;BMP_temperature;BMP_pressure;BME280_temperature;BME280_humidity;BME280_pressure;Samples;Min_cycle;Max_cycle;Signal;HPM_P1;HPM_P2
2022/04/12 00:00:45;;;;;;;2.03;1.77;;;11.70;99.90;;;;;;5097112;28;20189;-58
2022/04/12 00:03:11;;;;;;;2.00;1.73;;;11.70;99.90;;;;;;5078679;28;20185;-59
2022/04/12 00:05:38;;;;;;;1.85;1.75;;;11.60;99.90;;;;;;5096957;28;20200;-58
2022/04/12 00:08:05;;;;;;;3.25;1.73;;;11.60;99.90;;;;;;5096717;28;20280;-58
2022/04/12 00:10:32;;;;;;;2.55;1.77;;;11.60;99.90;;;;;;5096765;28;20253;-59
2022/04/12 00:12:59;;;;;;;1.92;1.60;;;11.70;99.90;;;;;;5096639;28;20178;-59
2022/04/12 00:15:25;;;;;;;2.38;1.50;;;11.60;99.90;;;;;;5096886;28;20524;-59
2022/04/12 00:20:36;;;;;;;1.67;1.30;;;11.60;99.90;;;;;;5096912;28;20176;-59
2022/04/12 00:23:02;;;;;;;1.70;1.50;;;11.50;99.90;;;;;;5096527;28;20625;-58
2022/04/12 00:25:29;;;;;;;1.90;1.60;;;11.60;99.90;;;;;;5096427;28;20505;-59
2022/04/12 00:27:57;;;;;;;1.98;1.65;;;11.50;99.90;;;;;;5096578;28;20170;-59
2022/04/12 00:30:25;;;;;;;1.65;1.52;;;11.50;99.90;;;;;;5096520;28;20174;-59
2022/04/12 00:32:52;;;;;;;1.88;1.40;;;11.50;99.90;;;;;;5096375;28;20178;-58
2022/04/12 00:35:19;;;;;;;1.83;1.35;;;11.50;99.90;;;;;;5096185;28;20193;-58
2022/04/12 00:37:45;;;;;;;2.30;1.55;;;11.50;99.90;;;;;;5096171;28;20301;-58
2022/04/12 00:40:13;;;;;;;3.67;1.50;;;11.40;99.90;;;;;;5096159;28;20185;-59
2022/04/12 00:42:38;;;;;;;1.58;1.33;;;11.40;99.90;;;;;;5096249;28;20192;-59
2022/04/12 00:45:05;;;;;;;1.70;1.25;;;11.40;99.90;;;;;;5096258;28;20716;-58
2022/04/12 00:47:30;;;;;;;2.20;1.50;;;11.40;99.90;;;;;;5061433;28;20182;-58
2022/04/12 00:49:57;;;;;;;2.17;1.67;;;11.40;99.90;;;;;;5095899;28;20208;-58
2022/04/12 00:52:23;;;;;;;2.33;1.52;;;11.50;99.90;;;;;;5095973;28;20174;-58
2022/04/12 00:54:49;;;;;;;1.65;1.42;;;11.40;99.90;;;;;;5096129;28;20182;-58
2022/04/12 00:57:16;;;;;;;2.35;1.40;;;11.40;99.90;;;;;;5095929;28;20252;-58
2022/04/12 00:59:45;;;;;;;1.58;1.48;;;11.40;99.90;;;;;;5095781;28;20177;-58
2022/04/12 01:02:10;;;;;;;1.40;1.25;;;11.40;99.90;;;;;;5095759;28;20525;-58
2022/04/12 01:04:36;;;;;;;1.50;1.33;;;11.40;99.90;;;;;;5096061;28;20273;-59
2022/04/12 01:07:02;;;;;;;2.58;1.40;;;11.40;99.90;;;;;;5095670;28;20253;-58
2022/04/12 01:09:28;;;;;;;1.65;1.35;;;11.40;99.90;;;;;;5095635;28;20170;-58
2022/04/12 01:11:57;;;;;;;1.10;1.10;;;11.40;99.90;;;;;;5095471;28;20530;-59
2022/04/12 01:14:25;;;;;;;1.73;1.40;;;11.30;99.90;;;;;;5095704;28;20604;-59
2022/04/12 01:16:52;;;;;;;1.50;1.17;;;11.30;99.90;;;;;;5095504;28;20251;-59
2022/04/12 01:19:18;;;;;;;1.52;1.33;;;11.30;99.90;;;;;;5077680;28;20188;-59
2022/04/12 01:21:56;;;;;;;1.60;1.50;;;11.30;99.90;;;;;;5095323;28;20173;-59
2022/04/12 01:24:23;;;;;;;1.58;1.45;;;11.30;99.90;;;;;;5095433;28;20629;-59
2022/04/12 01:26:49;;;;;;;1.58;1.45;;;11.30;99.90;;;;;;5095335;28;20215;-59
2022/04/12 01:29:15;;;;;;;1.45;1.20;;;11.30;99.90;;;;;;5095374;28;20186;-59
2022/04/12 01:31:41;;;;;;;1.38;1.27;;;11.30;99.90;;;;;;5077108;28;20270;-58
2022/04/12 01:34:06;;;;;;;1.48;1.30;;;11.30;99.90;;;;;;5094964;28;20186;-58
2022/04/12 01:36:32;;;;;;;1.45;1.27;;;11.20;99.90;;;;;;5095485;28;20208;-58
2022/04/12 01:38:57;;;;;;;1.75;1.50;;;11.20;99.90;;;;;;5077244;28;20217;-59
2022/04/12 01:41:23;;;;;;;1.85;1.45;;;11.10;99.90;;;;;;5095126;28;20181;-58
2022/04/12 01:43:49;;;;;;;2.22;1.33;;;11.10;99.90;;;;;;5095077;28;20639;-59
2022/04/12 01:46:14;;;;;;;1.48;1.38;;;11.10;99.90;;;;;;5095056;28;20185;-58
2022/04/12 01:48:40;;;;;;;1.27;1.17;;;11.10;99.90;;;;;;5076689;28;20182;-58
2022/04/12 01:51:06;;;;;;;1.63;1.27;;;11.20;99.90;;;;;;5094705;28;20173;-58
2022/04/12 01:53:31;;;;;;;1.48;1.08;;;11.20;99.90;;;;;;5076922;28;20629;-59
2022/04/12 01:55:57;;;;;;;1.60;1.20;;;11.10;99.90;;;;;;5094727;28;20178;-58
2022/04/12 01:58:23;;;;;;;1.75;1.23;;;11.10;99.90;;;;;;5094623;28;20174;-58
2022/04/12 02:00:48;;;;;;;1.65;1.40;;;11.20;99.90;;;;;;5076248;28;20174;-58
2022/04/12 02:03:14;;;;;;;1.38;1.27;;;11.20;99.90;;;;;;5094608;28;20522;-59
2022/04/12 02:05:40;;;;;;;2.22;1.63;;;11.20;99.90;;;;;;5094524;28;20514;-59
2022/04/12 02:08:07;;;;;;;1.50;1.15;;;11.10;99.90;;;;;;5076514;28;20566;-59
2022/04/12 02:10:33;;;;;;;1.42;1.33;;;11.00;99.90;;;;;;5076800;28;20636;-58
2022/04/12 02:12:58;;;;;;;1.55;1.42;;;11.00;99.90;;;;;;5094458;28;20193;-58
2022/04/12 02:15:24;;;;;;;1.70;1.20;;;10.90;99.90;;;;;;5076315;28;20174;-59
2022/04/12 02:17:49;;;;;;;1.15;1.05;;;10.90;99.90;;;;;;5094150;28;20209;-59
2022/04/12 02:20:15;;;;;;;1.88;1.40;;;11.00;99.90;;;;;;5094252;28;20257;-58
2022/04/12 02:22:41;;;;;;;1.30;1.10;;;11.00;99.90;;;;;;5076228;28;20178;-59
2022/04/12 02:25:07;;;;;;;1.38;1.27;;;11.00;99.90;;;;;;5094188;28;20178;-58
2022/04/12 02:27:32;;;;;;;1.13;1.02;;;11.00;99.90;;;;;;5076022;28;20637;-58
2022/04/12 02:29:58;;;;;;;1.13;1.02;;;11.00;99.90;;;;;;5076063;28;20247;-59
2022/04/12 02:32:24;;;;;;;1.38;1.15;;;11.00;99.90;;;;;;5093914;28;20252;-59
2022/04/12 02:34:49;;;;;;;1.38;1.27;;;11.00;99.90;;;;;;5094012;28;20178;-58
2022/04/12 02:37:15;;;;;;;1.73;1.33;;;11.00;99.90;;;;;;5093865;28;20233;-58
2022/04/12 02:39:41;;;;;;;1.45;1.30;;;11.00;99.90;;;;;;5076045;28;20651;-58
2022/04/12 02:42:07;;;;;;;1.25;1.15;;;11.00;99.90;;;;;;5093980;28;20694;-59
2022/04/12 02:44:32;;;;;;;1.90;1.40;;;10.90;99.90;;;;;;5093892;28;20174;-59
2022/04/12 02:46:58;;;;;;;1.73;1.40;;;10.90;99.90;;;;;;5093756;28;20182;-59
2022/04/12 02:49:23;;;;;;;1.17;1.10;;;10.90;99.90;;;;;;5094218;28;20182;-59
2022/04/12 02:51:51;;;;;;;1.27;1.13;;;10.90;99.90;;;;;;5093852;28;20506;-59
2022/04/12 02:54:17;;;;;;;2.22;1.40;;;10.90;99.90;;;;;;5093826;28;20174;-58
2022/04/12 02:56:43;;;;;;;2.83;1.27;;;11.00;99.90;;;;;;5093715;28;20212;-58
2022/04/12 02:59:09;;;;;;;1.48;1.38;;;10.90;99.90;;;;;;5093639;28;20174;-58
2022/04/12 03:01:34;;;;;;;1.60;1.35;;;10.90;99.90;;;;;;5093540;28;20506;-59
2022/04/12 03:04:00;;;;;;;1.30;1.20;;;10.90;99.90;;;;;;5093513;28;20290;-59
2022/04/12 03:06:26;;;;;;;2.05;1.30;;;10.80;99.90;;;;;;5075659;28;20216;-58
2022/04/12 03:08:52;;;;;;;1.27;1.10;;;10.90;99.90;;;;;;5075458;28;20170;-59
2022/04/12 03:11:17;;;;;;;1.63;1.25;;;10.80;99.90;;;;;;5075367;28;20180;-59
2022/04/12 03:13:43;;;;;;;1.55;1.45;;;10.80;99.90;;;;;;5092406;28;20181;-58
2022/04/12 03:16:09;;;;;;;1.73;1.33;;;10.80;99.90;;;;;;5093200;28;20567;-58
2022/04/12 03:18:34;;;;;;;1.60;1.38;;;10.80;99.90;;;;;;5075370;28;20217;-59
2022/04/12 03:21:00;;;;;;;1.65;1.33;;;10.80;99.90;;;;;;5093431;28;20174;-59
2022/04/12 03:23:26;;;;;;;1.58;1.20;;;10.70;99.90;;;;;;5093359;28;20227;-59
2022/04/12 03:25:51;;;;;;;1.35;1.25;;;10.70;99.90;;;;;;5093320;28;20638;-59
2022/04/12 03:28:17;;;;;;;1.30;1.20;;;10.70;99.90;;;;;;5093239;28;20174;-59
2022/04/12 03:30:43;;;;;;;1.58;1.17;;;10.70;99.90;;;;;;5093177;28;20174;-58
2022/04/12 03:33:08;;;;;;;1.73;1.40;;;10.60;99.90;;;;;;5093288;28;20178;-59
2022/04/12 03:35:35;;;;;;;1.55;1.25;;;10.60;99.90;;;;;;5093243;28;20174;-59
2022/04/12 03:38:01;;;;;;;1.67;1.25;;;10.60;99.90;;;;;;5093239;28;20584;-58
2022/04/12 03:40:31;;;;;;;1.45;1.35;;;10.60;99.90;;;;;;5092968;28;20549;-59
2022/04/12 03:43:05;;;;;;;1.35;1.10;;;10.50;99.90;;;;;;5093182;28;20178;-58
2022/04/12 03:45:32;;;;;;;1.92;1.55;;;10.50;99.90;;;;;;5075030;28;20575;-58
2022/04/12 03:47:58;;;;;;;1.67;1.45;;;10.50;99.90;;;;;;5093132;28;20246;-58
2022/04/12 03:50:24;;;;;;;2.28;1.60;;;10.40;99.90;;;;;;5092979;28;20202;-58
2022/04/12 03:52:51;;;;;;;1.85;1.40;;;10.40;99.90;;;;;;5093093;28;20165;-58
2022/04/12 03:55:30;;;;;;;3.10;2.03;;;10.50;99.90;;;;;;5074914;28;20277;-58
2022/04/12 03:57:57;;;;;;;2.10;1.67;;;10.40;99.90;;;;;;5092747;28;20216;-58
2022/04/12 04:00:23;;;;;;;1.60;1.30;;;10.40;99.90;;;;;;5093075;28;20178;-59
2022/04/12 04:02:49;;;;;;;2.33;1.70;;;10.40;99.90;;;;;;5092784;28;20178;-58
2022/04/12 04:05:14;;;;;;;1.85;1.60;;;10.30;99.90;;;;;;5092723;28;20198;-58
2022/04/12 04:07:40;;;;;;;3.22;1.50;;;10.30;99.90;;;;;;5092957;28;20255;-59
2022/04/12 04:10:06;;;;;;;1.95;1.63;;;10.20;99.90;;;;;;5092845;28;20666;-58
2022/04/12 04:12:31;;;;;;;1.85;1.30;;;10.20;99.90;;;;;;5092668;28;20174;-59
2022/04/12 04:14:57;;;;;;;2.17;1.70;;;10.30;99.90;;;;;;5093227;28;20185;-58
2022/04/12 04:17:23;;;;;;;2.17;1.50;;;10.20;99.90;;;;;;5074874;28;20264;-59
2022/04/12 04:19:48;;;;;;;2.10;1.48;;;10.20;99.90;;;;;;5092825;28;20189;-59
2022/04/12 04:22:14;;;;;;;1.85;1.45;;;10.20;99.90;;;;;;5092737;28;20541;-59
2022/04/12 04:24:40;;;;;;;1.73;1.52;;;10.20;99.90;;;;;;5093996;28;20174;-58
2022/04/12 04:27:05;;;;;;;1.60;1.45;;;10.20;99.90;;;;;;5096385;28;20178;-58
2022/04/12 04:29:35;;;;;;;2.72;1.67;;;10.20;99.90;;;;;;5096563;28;20181;-58
2022/04/12 04:32:01;;;;;;;1.50;1.30;;;10.20;99.90;;;;;;5096360;28;20690;-58
2022/04/12 04:34:27;;;;;;;1.92;1.60;;;10.10;99.90;;;;;;5096536;28;20259;-58
2022/04/12 04:36:52;;;;;;;2.50;1.58;;;10.10;99.90;;;;;;5096320;28;20226;-58
2022/04/12 04:39:18;;;;;;;2.25;1.63;;;10.10;99.90;;;;;;5096255;28;20174;-59
2022/04/12 04:41:44;;;;;;;2.53;1.58;;;10.10;99.90;;;;;;5096382;28;20174;-58
2022/04/12 04:44:09;;;;;;;2.08;1.80;;;10.00;99.90;;;;;;5078372;28;20197;-59
2022/04/12 04:46:35;;;;;;;2.00;1.42;;;10.00;99.90;;;;;;5096408;28;20174;-59
2022/04/12 04:49:01;;;;;;;2.22;1.50;;;10.00;99.90;;;;;;5061317;28;20534;-59
2022/04/12 04:51:27;;;;;;;1.95;1.40;;;10.00;99.90;;;;;;5077520;28;20262;-59
2022/04/12 04:53:59;;;;;;;1.63;1.52;;;10.00;99.90;;;;;;5095926;28;20177;-59
2022/04/12 04:56:26;;;;;;;1.52;1.40;;;10.00;99.90;;;;;;5095557;28;20205;-59
2022/04/12 04:58:52;;;;;;;1.95;1.60;;;10.00;99.90;;;;;;5096045;28;20202;-59
2022/04/12 05:01:19;;;;;;;1.73;1.45;;;10.00;99.90;;;;;;5095945;28;20174;-58
2022/04/12 05:03:45;;;;;;;2.30;1.60;;;10.00;99.90;;;;;;5095900;28;20197;-59
2022/04/12 05:06:11;;;;;;;2.30;1.83;;;9.90;99.90;;;;;;5094618;28;20231;-59
2022/04/12 05:08:36;;;;;;;1.80;1.50;;;9.90;99.90;;;;;;5077499;28;20256;-59
2022/04/12 05:11:02;;;;;;;2.20;2.00;;;9.90;99.90;;;;;;5095635;28;20176;-59
2022/04/12 05:13:27;;;;;;;2.15;1.63;;;9.90;99.90;;;;;;5095647;28;20174;-59
2022/04/12 05:15:53;;;;;;;1.90;1.52;;;9.90;99.90;;;;;;5095757;28;20170;-59
2022/04/12 05:18:18;;;;;;;3.13;1.70;;;9.90;99.90;;;;;;5095603;28;20241;-59
2022/04/12 05:20:44;;;;;;;2.50;1.73;;;9.90;99.90;;;;;;5094372;28;20248;-59
2022/04/12 05:23:10;;;;;;;2.97;1.85;;;9.90;99.90;;;;;;5077073;28;20174;-59
2022/04/12 05:25:35;;;;;;;2.17;1.85;;;9.90;99.90;;;;;;5077129;28;20185;-59
2022/04/12 05:28:01;;;;;;;2.97;2.08;;;9.90;99.90;;;;;;5095232;28;20182;-59
2022/04/12 05:30:27;;;;;;;2.70;1.92;;;9.90;99.90;;;;;;5095515;28;20648;-59
2022/04/12 05:32:53;;;;;;;3.42;1.80;;;9.90;99.90;;;;;;5095462;28;20573;-59
2022/04/12 05:35:19;;;;;;;4.93;2.03;;;9.90;99.90;;;;;;5077429;28;20724;-59
2022/04/12 05:37:48;;;;;;;3.08;1.98;;;10.00;99.90;;;;;;5094318;28;20292;-59
2022/04/12 05:40:15;;;;;;;1.63;1.45;;;10.00;99.90;;;;;;5095028;28;20184;-59
2022/04/12 05:42:42;;;;;;;2.55;1.80;;;10.00;99.90;;;;;;5077311;28;20223;-59
2022/04/12 05:45:08;;;;;;;4.65;1.60;;;10.00;99.90;;;;;;5095075;28;20181;-60
2022/04/12 05:47:45;;;;;;;2.05;1.60;;;10.10;99.90;;;;;;5094933;28;20699;-59
2022/04/12 05:50:12;;;;;;;1.88;1.35;;;10.20;99.90;;;;;;5094977;28;20567;-59
2022/04/12 05:52:41;;;;;;;1.92;1.60;;;10.20;99.90;;;;;;5094986;28;20654;-59
2022/04/12 05:55:09;;;;;;;1.67;1.50;;;10.30;99.90;;;;;;5094957;28;20182;-59
2022/04/12 05:57:37;;;;;;;1.60;1.50;;;10.30;99.90;;;;;;5094808;28;20202;-59
2022/04/12 06:00:06;;;;;;;2.17;1.58;;;10.40;99.90;;;;;;5094776;28;20230;-59
2022/04/12 06:02:32;;;;;;;1.98;1.70;;;10.50;99.90;;;;;;5094886;28;20636;-59
2022/04/12 06:04:58;;;;;;;1.85;1.40;;;10.50;99.90;;;;;;5076457;28;20587;-59
2022/04/12 06:07:30;;;;;;;1.90;1.48;;;10.70;99.90;;;;;;5094863;28;20230;-59
2022/04/12 06:09:55;;;;;;;1.48;1.38;;;10.80;99.90;;;;;;5094820;28;20166;-59
2022/04/12 06:12:21;;;;;;;2.13;1.50;;;11.00;99.90;;;;;;5094593;28;20181;-59
2022/04/12 06:14:46;;;;;;;1.55;1.40;;;11.00;99.90;;;;;;5094375;28;20185;-59
2022/04/12 06:17:12;;;;;;;2.58;1.63;;;11.30;99.90;;;;;;5094369;28;20206;-59
2022/04/12 06:19:37;;;;;;;1.60;1.38;;;11.50;99.90;;;;;;5076095;28;20272;-59
2022/04/12 06:22:03;;;;;;;2.38;1.35;;;11.70;99.90;;;;;;5094803;28;20236;-60
2022/04/12 06:24:29;;;;;;;1.45;1.35;;;11.70;99.90;;;;;;5094347;28;20574;-60
2022/04/12 06:26:54;;;;;;;1.17;1.10;;;11.70;99.90;;;;;;5094380;28;20545;-59
2022/04/12 06:29:20;;;;;;;2.42;1.30;;;11.90;99.90;;;;;;5094281;28;20201;-60
2022/04/12 06:31:46;;;;;;;2.20;1.33;;;11.90;99.90;;;;;;5094114;28;20192;-59
2022/04/12 06:34:11;;;;;;;1.30;1.20;;;11.80;99.90;;;;;;5093897;28;20631;-59
2022/04/12 06:36:37;;;;;;;1.40;1.30;;;11.90;99.90;;;;;;5094334;28;20205;-59
2022/04/12 06:39:03;;;;;;;1.98;1.30;;;12.00;99.90;;;;;;5094412;28;20181;-58
2022/04/12 06:41:29;;;;;;;1.75;1.20;;;12.20;99.90;;;;;;5094008;28;20548;-58
2022/04/12 06:43:54;;;;;;;1.67;1.10;;;12.40;99.90;;;;;;5075911;28;20182;-60
2022/04/12 06:46:20;;;;;;;2.10;1.60;;;12.60;99.90;;;;;;5093888;28;20178;-58
2022/04/12 06:48:46;;;;;;;1.60;1.30;;;12.80;99.90;;;;;;5093550;28;20177;-58
2022/04/12 06:51:11;;;;;;;1.20;1.10;;;12.90;99.90;;;;;;5093794;28;20494;-58
2022/04/12 06:53:37;;;;;;;1.80;1.27;;;13.10;99.90;;;;;;5093885;28;20181;-58
2022/04/12 06:56:03;;;;;;;1.67;1.58;;;13.30;99.90;;;;;;5093802;28;20200;-59
2022/04/12 06:58:29;;;;;;;1.85;1.33;;;13.40;99.90;;;;;;5093643;28;20178;-59
2022/04/12 07:00:54;;;;;;;2.67;1.50;;;13.50;99.90;;;;;;5093763;28;20266;-58
2022/04/12 07:03:21;;;;;;;2.53;1.42;;;13.60;99.90;;;;;;5093782;28;20190;-58
2022/04/12 07:05:49;;;;;;;1.63;1.33;;;13.50;99.90;;;;;;5093927;28;20189;-58
2022/04/12 07:08:15;;;;;;;3.05;1.20;;;13.60;99.90;;;;;;5093670;28;20690;-58
2022/04/12 07:10:42;;;;;;;2.13;1.55;;;13.60;99.90;;;;;;5093291;28;20177;-58
2022/04/12 07:13:08;;;;;;;2.42;1.70;;;13.60;99.90;;;;;;5093578;28;20173;-59
2022/04/12 07:15:33;;;;;;;1.58;1.33;;;13.40;99.90;;;;;;5093492;28;20170;-59
2022/04/12 07:17:59;;;;;;;1.73;1.52;;;13.60;99.90;;;;;;5093124;28;20233;-59
2022/04/12 07:20:25;;;;;;;3.22;1.23;;;13.60;99.90;;;;;;5093534;28;20178;-59
2022/04/12 07:22:50;;;;;;;1.83;1.60;;;13.80;99.90;;;;;;5075265;28;20232;-59
2022/04/12 07:25:17;;;;;;;1.40;1.20;;;13.80;99.90;;;;;;5093652;28;20217;-59
2022/04/12 07:27:43;;;;;;;1.33;1.17;;;13.80;99.90;;;;;;5093321;28;20185;-62
2022/04/12 07:30:09;;;;;;;1.40;1.30;;;14.00;99.90;;;;;;5093198;28;20170;-59
2022/04/12 07:32:35;;;;;;;1.67;1.45;;;14.10;99.90;;;;;;5093064;28;20177;-59
2022/04/12 07:35:00;;;;;;;1.65;1.35;;;14.00;99.90;;;;;;5093177;28;20535;-59
2022/04/12 07:37:26;;;;;;;1.65;1.48;;;14.30;99.90;;;;;;5075169;28;20202;-59
2022/04/12 07:39:55;;;;;;;1.73;1.40;;;14.40;99.90;;;;;;5093209;28;20178;-59
2022/04/12 07:42:23;;;;;;;1.15;1.05;;;14.60;99.90;;;;;;5093067;28;20675;-59
2022/04/12 07:44:48;;;;;;;1.88;1.35;;;14.50;99.90;;;;;;5093091;28;20205;-59
2022/04/12 07:47:14;;;;;;;1.30;1.20;;;14.80;99.90;;;;;;5075168;28;20278;-59
2022/04/12 07:49:40;;;;;;;2.08;1.25;;;14.80;99.90;;;;;;5093442;28;20174;-59
2022/04/12 07:52:07;;;;;;;1.83;1.20;;;14.60;99.90;;;;;;5092877;28;20556;-59
2022/04/12 07:54:32;;;;;;;1.65;1.55;;;14.70;99.90;;;;;;5093110;28;20203;-59
2022/04/12 07:56:58;;;;;;;1.35;0.90;;;14.80;99.90;;;;;;5074818;28;20202;-59
2022/04/12 07:59:24;;;;;;;1.33;1.23;;;15.20;99.90;;;;;;5075913;28;20182;-59
2022/04/12 08:01:49;;;;;;;1.40;1.30;;;15.40;99.90;;;;;;5096867;28;20173;-60
2022/04/12 08:04:15;;;;;;;1.73;1.20;;;15.50;99.90;;;;;;5096889;28;20232;-59
2022/04/12 08:06:41;;;;;;;2.70;1.38;;;15.70;99.90;;;;;;5097112;28;20343;-59
2022/04/12 08:09:06;;;;;;;1.75;1.40;;;15.90;99.90;;;;;;5078845;28;20182;-59
2022/04/12 08:11:32;;;;;;;1.60;1.40;;;16.10;99.90;;;;;;5096856;28;20216;-59
2022/04/12 08:13:58;;;;;;;1.35;1.23;;;16.40;99.90;;;;;;5096832;28;20206;-59
2022/04/12 08:16:24;;;;;;;1.38;1.08;;;16.60;99.90;;;;;;5078578;28;20595;-59
2022/04/12 08:18:50;;;;;;;2.53;1.45;;;16.90;99.90;;;;;;5096785;28;20179;-59
2022/04/12 08:21:38;;;;;;;1.35;1.25;;;17.10;99.90;;;;;;5096686;28;20641;-59
2022/04/12 08:24:05;;;;;;;1.65;1.45;;;17.10;99.60;;;;;;5096668;28;20181;-59
2022/04/12 08:26:30;;;;;;;1.67;1.20;;;17.10;99.90;;;;;;5096755;28;20185;-59
2022/04/12 08:28:56;;;;;;;2.33;1.30;;;17.30;99.90;;;;;;5096359;28;20525;-59
2022/04/12 08:31:22;;;;;;;1.20;1.10;;;17.50;99.90;;;;;;5096794;28;20201;-59
2022/04/12 08:33:49;;;;;;;1.20;1.02;;;17.40;99.90;;;;;;5078041;28;20178;-59
2022/04/12 08:36:16;;;;;;;1.58;1.35;;;17.50;99.50;;;;;;5096402;28;20209;-59
2022/04/12 08:38:43;;;;;;;1.20;1.10;;;17.60;99.90;;;;;;5096231;28;20235;-59
2022/04/12 08:41:09;;;;;;;1.17;1.08;;;17.50;99.90;;;;;;5096182;28;20193;-59
2022/04/12 08:43:39;;;;;;;1.90;1.25;;;17.50;99.90;;;;;;5096413;28;20189;-59
2022/04/12 08:46:06;;;;;;;1.20;1.10;;;17.70;99.90;;;;;;5096357;28;20173;-59
2022/04/12 08:48:32;;;;;;;1.55;1.30;;;17.60;99.20;;;;;;5096219;28;20200;-59
2022/04/12 08:50:58;;;;;;;1.30;1.20;;;17.50;99.70;;;;;;5096097;28;20201;-59
2022/04/12 08:53:25;;;;;;;1.10;1.00;;;17.30;99.40;;;;;;5096195;28;20222;-59
2022/04/12 08:55:51;;;;;;;1.20;1.10;;;17.40;99.40;;;;;;5095881;28;20257;-59
2022/04/12 08:58:16;;;;;;;1.90;1.50;;;17.40;99.90;;;;;;5096088;28;20296;-59
2022/04/12 09:00:43;;;;;;;1.45;1.20;;;17.40;99.90;;;;;;5096037;28;20174;-59
2022/04/12 09:03:15;;;;;;;1.65;1.10;;;17.60;99.80;;;;;;5095658;28;20247;-58
2022/04/12 09:05:41;;;;;;;1.55;1.13;;;17.60;99.90;;;;;;5095985;28;20170;-59
2022/04/12 09:08:29;;;;;;;1.70;1.20;;;17.70;98.70;;;;;;5095635;28;20239;-59
2022/04/12 09:11:01;;;;;;;1.88;1.33;;;18.00;99.90;;;;;;5094429;28;20216;-59
2022/04/12 09:13:27;;;;;;;1.10;1.00;;;18.30;99.90;;;;;;5095879;28;20170;-59
2022/04/12 09:15:53;;;;;;;1.08;0.85;;;18.70;99.90;;;;;;5095714;28;20629;-59
2022/04/12 09:18:38;;;;;;;1.02;1.00;;;18.90;99.60;;;;;;5095569;28;20202;-60
2022/04/12 09:21:14;;;;;;;0.93;0.90;;;19.00;98.50;;;;;;5095413;28;20178;-59
2022/04/12 09:23:49;;;;;;;1.48;0.90;;;19.00;99.00;;;;;;5095546;28;20178;-59
2022/04/12 09:26:25;;;;;;;1.58;1.00;;;18.90;98.70;;;;;;5095473;28;20185;-59
2022/04/12 09:29:00;;;;;;;1.20;1.00;;;18.30;97.90;;;;;;5077440;28;20196;-59
2022/04/12 09:31:26;;;;;;;1.55;1.20;;;18.10;98.90;;;;;;5095449;28;20593;-60
2022/04/12 09:33:53;;;;;;;1.48;1.10;;;18.10;99.90;;;;;;5095174;28;20193;-60
2022/04/12 09:36:19;;;;;;;1.00;1.00;;;18.30;99.90;;;;;;5095253;28;20170;-59
2022/04/12 09:38:47;;;;;;;2.30;1.00;;;18.30;99.80;;;;;;5095190;28;20182;-59
2022/04/12 09:41:17;;;;;;;1.25;0.90;;;18.60;99.90;;;;;;5095128;28;20161;-59
2022/04/12 09:44:05;;;;;;;1.00;0.90;;;19.00;99.90;;;;;;5094956;28;20221;-59
2022/04/12 09:46:32;;;;;;;1.35;1.00;;;19.00;99.60;;;;;;5095274;28;20221;-59
2022/04/12 09:48:57;;;;;;;3.08;1.05;;;19.10;99.40;;;;;;5095101;28;20583;-59
2022/04/12 09:51:23;;;;;;;1.20;0.77;;;19.20;99.70;;;;;;5094999;28;20178;-60
2022/04/12 09:53:51;;;;;;;1.70;0.85;;;19.20;98.90;;;;;;5094791;28;20201;-60
2022/04/12 09:56:20;;;;;;;1.27;1.15;;;19.40;99.80;;;;;;5094674;28;20178;-60
2022/04/12 09:58:48;;;;;;;0.65;0.55;;;19.60;99.90;;;;;;5076873;28;20178;-60
2022/04/12 10:01:16;;;;;;;0.90;0.90;;;19.90;99.90;;;;;;5094845;28;20182;-60
2022/04/12 10:03:53;;;;;;;0.82;0.68;;;20.10;98.50;;;;;;5094730;28;20193;-60
2022/04/12 10:06:24;;;;;;;0.77;0.77;;;20.30;98.60;;;;;;5094753;28;20253;-60
2022/04/12 10:08:55;;;;;;;0.93;0.60;;;20.40;96.80;;;;;;5094479;28;20173;-60
2022/04/12 10:11:22;;;;;;;1.20;0.80;;;20.70;98.70;;;;;;5094629;28;20174;-60
2022/04/12 10:13:48;;;;;;;0.60;0.60;;;20.90;98.40;;;;;;5094519;28;20178;-61
2022/04/12 10:16:16;;;;;;;1.42;0.90;;;21.00;97.80;;;;;;5094367;28;20170;-59
2022/04/12 10:18:43;;;;;;;0.70;0.70;;;21.10;97.50;;;;;;5094302;28;20201;-59
2022/04/12 10:21:11;;;;;;;0.70;0.70;;;21.40;96.60;;;;;;5094255;28;20224;-60
2022/04/12 10:23:38;;;;;;;0.60;0.60;;;21.30;95.90;;;;;;5094000;28;20174;-60
2022/04/12 10:26:05;;;;;;;1.75;0.70;;;21.20;96.00;;;;;;5094382;28;20174;-60
2022/04/12 10:28:31;;;;;;;1.13;0.80;;;21.20;96.70;;;;;;5094326;28;20192;-60
2022/04/12 10:31:24;;;;;;;0.80;0.80;;;21.00;95.30;;;;;;5094395;28;20166;-60
2022/04/12 10:34:04;;;;;;;1.20;0.85;;;21.00;97.30;;;;;;5093818;28;20199;-60
2022/04/12 10:36:55;;;;;;;0.85;0.85;;;21.20;97.30;;;;;;5094096;28;20202;-60
2022/04/12 10:39:35;;;;;;;0.82;0.82;;;21.20;97.30;;;;;;5094148;28;20638;-60
2022/04/12 10:42:24;;;;;;;1.52;0.98;;;21.40;97.50;;;;;;5093816;28;20177;-59
2022/04/12 10:44:57;;;;;;;1.13;0.90;;;21.50;95.80;;;;;;5094108;28;20166;-59
2022/04/12 10:47:35;;;;;;;1.00;0.90;;;21.30;96.60;;;;;;5093999;28;20178;-59
2022/04/12 10:50:02;;;;;;;1.15;0.90;;;21.20;97.00;;;;;;5093713;28;20174;-60
2022/04/12 10:52:33;;;;;;;0.88;0.75;;;21.20;96.20;;;;;;5093775;28;20215;-60
2022/04/12 10:55:01;;;;;;;1.98;1.30;;;21.30;95.70;;;;;;5093848;28;20166;-59
2022/04/12 10:57:27;;;;;;;2.00;1.27;;;21.30;97.20;;;;;;5093740;28;20208;-60
2022/04/12 11:00:15;;;;;;;0.93;0.85;;;21.50;96.80;;;;;;5093645;28;20192;-60
2022/04/12 11:02:54;;;;;;;0.98;0.93;;;21.40;96.90;;;;;;5075468;28;20267;-59
2022/04/12 11:05:35;;;;;;;1.10;0.85;;;21.50;96.90;;;;;;5093987;28;20315;-60
2022/04/12 11:08:24;;;;;;;1.50;0.90;;;21.60;97.00;;;;;;5093666;28;20207;-60
2022/04/12 11:10:55;;;;;;;1.02;1.02;;;21.50;96.80;;;;;;5092977;28;20581;-60
2022/04/12 11:13:22;;;;;;;2.00;1.17;;;21.70;96.50;;;;;;5093353;28;20693;-59
2022/04/12 11:15:55;;;;;;;1.30;0.85;;;21.80;94.70;;;;;;5093638;28;20264;-60
2022/04/12 11:18:21;;;;;;;0.75;0.75;;;22.00;96.70;;;;;;5093519;28;20680;-59
2022/04/12 11:21:01;;;;;;;0.80;0.80;;;22.00;94.00;;;;;;5093301;28;20206;-60
2022/04/12 11:23:49;;;;;;;1.05;0.80;;;22.10;94.70;;;;;;5093410;28;20195;-60
2022/04/12 11:26:47;;;;;;;0.80;0.80;;;22.20;93.80;;;;;;5093442;28;20177;-59
2022/04/12 11:29:16;;;;;;;0.82;0.80;;;22.10;94.50;;;;;;5093320;28;20736;-58
2022/04/12 11:31:44;;;;;;;0.95;0.80;;;22.00;95.40;;;;;;5093107;28;20169;-58
2022/04/12 11:34:10;;;;;;;1.00;0.90;;;22.10;94.60;;;;;;5092226;28;20178;-58
2022/04/12 11:36:43;;;;;;;0.77;0.77;;;22.20;93.20;;;;;;5093093;28;20700;-59
2022/04/12 11:39:09;;;;;;;0.60;0.60;;;22.20;92.50;;;;;;5093434;28;20182;-60
2022/04/12 11:41:35;;;;;;;1.15;0.93;;;22.10;91.30;;;;;;5093452;28;20182;-58
2022/04/12 11:44:03;;;;;;;0.82;0.80;;;22.10;90.20;;;;;;5093311;28;20181;-58
2022/04/12 11:46:30;;;;;;;0.73;0.52;;;22.00;82.50;;;;;;5093002;28;20170;-58
2022/04/12 11:49:12;;;;;;;0.60;0.60;;;22.10;88.60;;;;;;5092899;28;20185;-60
2022/04/12 11:51:48;;;;;;;0.55;0.50;;;22.00;82.20;;;;;;5093358;28;20181;-59
2022/04/12 11:54:28;;;;;;;0.60;0.60;;;21.90;81.60;;;;;;5093142;28;20174;-58
2022/04/12 11:57:00;;;;;;;0.63;0.63;;;22.10;88.50;;;;;;5092929;28;20198;-57
2022/04/12 11:59:27;;;;;;;0.63;0.63;;;22.10;88.90;;;;;;5075030;28;20178;-60
2022/04/12 12:01:56;;;;;;;0.60;0.60;;;22.20;88.00;;;;;;5093129;28;20170;-60
2022/04/12 12:04:22;;;;;;;0.50;0.50;;;22.30;88.10;;;;;;5075357;28;20323;-59
2022/04/12 12:07:15;;;;;;;0.40;0.40;;;22.50;89.30;;;;;;5075007;28;20696;-58
2022/04/12 12:09:52;;;;;;;1.10;0.63;;;22.60;90.00;;;;;;5092142;28;20656;-59
2022/04/12 12:12:17;;;;;;;0.73;0.50;;;22.60;84.80;;;;;;5092924;28;20185;-59
2022/04/12 12:14:43;;;;;;;0.70;0.70;;;22.40;84.30;;;;;;5092983;28;20196;-59
2022/04/12 12:17:18;;;;;;;0.43;0.43;;;22.30;77.30;;;;;;5074780;28;20221;-59
2022/04/12 12:19:46;;;;;;;0.55;0.55;;;22.40;82.40;;;;;;5092822;28;20281;-59
2022/04/12 12:22:14;;;;;;;1.33;0.75;;;22.40;86.20;;;;;;5092748;28;20241;-59
2022/04/12 12:24:49;;;;;;;0.98;0.90;;;22.40;86.00;;;;;;5092833;28;20205;-59
2022/04/12 12:27:25;;;;;;;1.17;0.60;;;22.40;82.60;;;;;;5092873;28;20170;-59
2022/04/12 12:29:51;;;;;;;0.52;0.50;;;22.30;78.80;;;;;;5092697;28;20659;-60
2022/04/12 12:32:17;;;;;;;0.57;0.57;;;22.30;78.60;;;;;;5092584;28;20178;-60
2022/04/12 12:34:44;;;;;;;0.80;0.80;;;22.10;81.10;;;;;;5092470;28;20652;-60
2022/04/12 12:37:11;;;;;;;0.77;0.50;;;22.10;79.50;;;;;;5092527;28;20209;-59
2022/04/12 12:39:39;;;;;;;0.50;0.35;;;22.20;78.60;;;;;;5092755;28;20185;-59
2022/04/12 12:42:08;;;;;;;0.82;0.70;;;22.40;84.30;;;;;;5092653;28;20216;-60
2022/04/12 12:44:36;;;;;;;0.80;0.60;;;22.50;90.00;;;;;;5092569;28;20196;-60
2022/04/12 12:47:04;;;;;;;1.92;0.90;;;22.70;86.00;;;;;;5095738;28;20170;-60
2022/04/12 12:49:37;;;;;;;0.90;0.70;;;22.80;83.60;;;;;;5096230;28;20181;-60
2022/04/12 12:52:09;;;;;;;0.40;0.40;;;22.80;82.50;;;;;;5096020;28;20177;-60
2022/04/12 12:54:36;;;;;;;0.40;0.40;;;22.80;81.20;;;;;;5096239;28;20215;-60